sensor_id;sensor_type;location;lat;lon;timestamp;P1;durP1;ratioP1;P2;durP2;ratioP2
81219;SDS011;70690;52.494;13.410;2023-07-31T00:02:23;5.55;;;2.40;;
81219;SDS011;70690;52.494;13.410;2023-07-31T00:04:49;4.35;;;2.40;;
81219;SDS011;70690;52.494;13.410;2023-07-31T00:07:15;5.03;;;2.10;;
81219;SDS011;70690;52.494;13.410;2023-07-31T00:09:40;6.72;;;2.33;;
81219;SDS011;70690;52.494;13.410;2023-07-31T00:12:06;3.92;;;1.98;;
81219;SDS011;70690;52.494;13.410;2023-07-31T00:14:32;5.00;;;2.33;;
81219;SDS011;70690;52.494;13.410;2023-07-31T00:16:58;8.50;;;2.40;;
81219;SDS011;70690;52.494;13.410;2023-07-31T00:19:24;8.30;;;2.60;;
81219;SDS011;70690;52.494;13.410;2023-07-31T00:21:49;5.40;;;2.10;;
81219;SDS011;70690;52.494;13.410;2023-07-31T00:24:15;6.03;;;2.40;;
81219;SDS011;70690;52.494;13.410;2023-07-31T00:26:41;6.38;;;2.30;;
81219;SDS011;70690;52.494;13.410;2023-07-31T00:29:07;7.13;;;2.28;;
81219;SDS011;70690;52.494;13.410;2023-07-31T00:31:32;8.40;;;2.67;;
81219;SDS011;70690;52.494;13.410;2023-07-31T00:33:58;4.90;;;2.53;;
81219;SDS011;70690;52.494;13.410;2023-07-31T00:36:24;6.18;;;2.60;;
81219;SDS011;70690;52.494;13.410;2023-07-31T00:38:49;4.90;;;2.35;;
81219;SDS011;70690;52.494;13.410;2023-07-31T00:41:15;7.38;;;2.50;;
81219;SDS011;70690;52.494;13.410;2023-07-31T00:43:41;3.33;;;2.40;;
81219;SDS011;70690;52.494;13.410;2023-07-31T00:46:07;5.38;;;2.67;;
81219;SDS011;70690;52.494;13.410;2023-07-31T00:48:32;7.32;;;2.60;;
81219;SDS011;70690;52.494;13.410;2023-07-31T00:50:59;5.65;;;2.65;;
81219;SDS011;70690;52.494;13.410;2023-07-31T00:53:26;6.00;;;2.80;;
81219;SDS011;70690;52.494;13.410;2023-07-31T00:55:55;10.03;;;2.97;;
81219;SDS011;70690;52.494;13.410;2023-07-31T00:58:21;3.50;;;2.40;;
81219;SDS011;70690;52.494;13.410;2023-07-31T01:00:46;8.65;;;2.78;;
81219;SDS011;70690;52.494;13.410;2023-07-31T01:03:12;9.05;;;3.00;;
81219;SDS011;70690;52.494;13.410;2023-07-31T01:08:23;4.95;;;2.67;;
81219;SDS011;70690;52.494;13.410;2023-07-31T01:11:00;3.50;;;2.55;;
81219;SDS011;70690;52.494;13.410;2023-07-31T01:13:33;4.43;;;2.83;;
81219;SDS011;70690;52.494;13.410;2023-07-31T01:15:59;6.50;;;2.63;;
81219;SDS011;70690;52.494;13.410;2023-07-31T01:18:24;4.80;;;2.78;;
81219;SDS011;70690;52.494;13.410;2023-07-31T01:20:54;4.65;;;2.88;;
81219;SDS011;70690;52.494;13.410;2023-07-31T01:26:24;5.97;;;3.10;;
81219;SDS011;70690;52.494;13.410;2023-07-31T01:31:24;5.70;;;3.05;;
81219;SDS011;70690;52.494;13.410;2023-07-31T01:33:53;7.22;;;3.13;;
81219;SDS011;70690;52.494;13.410;2023-07-31T01:36:21;4.50;;;3.00;;
81219;SDS011;70690;52.494;13.410;2023-07-31T01:38:47;5.53;;;2.83;;
81219;SDS011;70690;52.494;13.410;2023-07-31T01:41:12;4.95;;;2.80;;
81219;SDS011;70690;52.494;13.410;2023-07-31T01:43:38;4.53;;;2.92;;
81219;SDS011;70690;52.494;13.410;2023-07-31T01:46:04;6.10;;;3.03;;
81219;SDS011;70690;52.494;13.410;2023-07-31T01:48:30;5.63;;;2.92;;
81219;SDS011;70690;52.494;13.410;2023-07-31T01:51:00;5.55;;;3.08;;
81219;SDS011;70690;52.494;13.410;2023-07-31T01:53:27;4.45;;;3.15;;
81219;SDS011;70690;52.494;13.410;2023-07-31T01:55:53;7.70;;;3.15;;
81219;SDS011;70690;52.494;13.410;2023-07-31T01:58:18;7.60;;;2.92;;
81219;SDS011;70690;52.494;13.410;2023-07-31T02:00:44;5.60;;;2.92;;
81219;SDS011;70690;52.494;13.410;2023-07-31T02:03:10;6.47;;;3.20;;
81219;SDS011;70690;52.494;13.410;2023-07-31T02:05:35;5.68;;;3.25;;
81219;SDS011;70690;52.494;13.410;2023-07-31T02:08:01;6.55;;;3.10;;
81219;SDS011;70690;52.494;13.410;2023-07-31T02:10:27;5.90;;;3.35;;
81219;SDS011;70690;52.494;13.410;2023-07-31T02:12:53;9.88;;;3.47;;
81219;SDS011;70690;52.494;13.410;2023-07-31T02:15:18;5.78;;;3.15;;
81219;SDS011;70690;52.494;13.410;2023-07-31T02:17:44;7.20;;;3.40;;
81219;SDS011;70690;52.494;13.410;2023-07-31T02:20:10;6.32;;;3.17;;
81219;SDS011;70690;52.494;13.410;2023-07-31T02:22:36;5.97;;;3.13;;
81219;SDS011;70690;52.494;13.410;2023-07-31T02:25:01;6.93;;;2.90;;
81219;SDS011;70690;52.494;13.410;2023-07-31T02:27:27;4.22;;;3.00;;
81219;SDS011;70690;52.494;13.410;2023-07-31T02:29:53;7.10;;;3.25;;
81219;SDS011;70690;52.494;13.410;2023-07-31T02:32:19;6.65;;;3.22;;
81219;SDS011;70690;52.494;13.410;2023-07-31T02:34:45;5.78;;;3.28;;
81219;SDS011;70690;52.494;13.410;2023-07-31T02:37:11;5.07;;;2.80;;
81219;SDS011;70690;52.494;13.410;2023-07-31T02:39:37;6.15;;;2.90;;
81219;SDS011;70690;52.494;13.410;2023-07-31T02:42:03;8.07;;;3.20;;
81219;SDS011;70690;52.494;13.410;2023-07-31T02:44:29;4.90;;;2.80;;
81219;SDS011;70690;52.494;13.410;2023-07-31T02:46:55;6.65;;;3.50;;
81219;SDS011;70690;52.494;13.410;2023-07-31T02:49:20;8.35;;;3.42;;
81219;SDS011;70690;52.494;13.410;2023-07-31T02:51:46;5.78;;;3.20;;
81219;SDS011;70690;52.494;13.410;2023-07-31T02:54:12;8.35;;;3.53;;
81219;SDS011;70690;52.494;13.410;2023-07-31T02:56:38;9.57;;;3.75;;
81219;SDS011;70690;52.494;13.410;2023-07-31T02:59:03;10.93;;;3.67;;
81219;SDS011;70690;52.494;13.410;2023-07-31T03:01:29;9.63;;;3.85;;
81219;SDS011;70690;52.494;13.410;2023-07-31T03:03:55;6.90;;;3.60;;
81219;SDS011;70690;52.494;13.410;2023-07-31T03:06:21;8.00;;;3.78;;
81219;SDS011;70690;52.494;13.410;2023-07-31T03:08:47;8.65;;;4.25;;
81219;SDS011;70690;52.494;13.410;2023-07-31T03:11:13;7.80;;;4.20;;
81219;SDS011;70690;52.494;13.410;2023-07-31T03:13:39;11.63;;;4.30;;
81219;SDS011;70690;52.494;13.410;2023-07-31T03:16:04;9.50;;;4.55;;
81219;SDS011;70690;52.494;13.410;2023-07-31T03:18:30;6.50;;;3.72;;
81219;SDS011;70690;52.494;13.410;2023-07-31T03:20:56;6.30;;;4.50;;
81219;SDS011;70690;52.494;13.410;2023-07-31T03:23:21;7.63;;;4.10;;
81219;SDS011;70690;52.494;13.410;2023-07-31T03:26:00;9.02;;;4.10;;
81219;SDS011;70690;52.494;13.410;2023-07-31T03:28:28;6.95;;;4.35;;
81219;SDS011;70690;52.494;13.410;2023-07-31T03:30:54;7.65;;;4.15;;
81219;SDS011;70690;52.494;13.410;2023-07-31T03:33:20;10.13;;;4.53;;
81219;SDS011;70690;52.494;13.410;2023-07-31T03:35:46;7.22;;;4.30;;
81219;SDS011;70690;52.494;13.410;2023-07-31T03:38:12;8.38;;;4.43;;
81219;SDS011;70690;52.494;13.410;2023-07-31T03:40:38;6.80;;;4.15;;
81219;SDS011;70690;52.494;13.410;2023-07-31T03:43:04;6.88;;;4.30;;
81219;SDS011;70690;52.494;13.410;2023-07-31T03:45:30;11.65;;;4.93;;
81219;SDS011;70690;52.494;13.410;2023-07-31T03:47:56;8.30;;;4.30;;
81219;SDS011;70690;52.494;13.410;2023-07-31T03:50:22;7.05;;;4.20;;
81219;SDS011;70690;52.494;13.410;2023-07-31T03:52:48;8.45;;;4.60;;
81219;SDS011;70690;52.494;13.410;2023-07-31T03:55:13;7.45;;;4.35;;
81219;SDS011;70690;52.494;13.410;2023-07-31T03:57:39;7.57;;;4.40;;
81219;SDS011;70690;52.494;13.410;2023-07-31T04:00:05;9.70;;;5.07;;
81219;SDS011;70690;52.494;13.410;2023-07-31T04:02:31;6.60;;;4.15;;
81219;SDS011;70690;52.494;13.410;2023-07-31T04:04:57;9.60;;;4.55;;
81219;SDS011;70690;52.494;13.410;2023-07-31T04:07:23;9.23;;;4.30;;
81219;SDS011;70690;52.494;13.410;2023-07-31T04:09:48;7.97;;;4.30;;
81219;SDS011;70690;52.494;13.410;2023-07-31T04:12:15;9.43;;;4.60;;
81219;SDS011;70690;52.494;13.410;2023-07-31T04:14:41;9.52;;;4.55;;
81219;SDS011;70690;52.494;13.410;2023-07-31T04:17:07;6.85;;;4.22;;
81219;SDS011;70690;52.494;13.410;2023-07-31T04:19:32;7.97;;;3.95;;
81219;SDS011;70690;52.494;13.410;2023-07-31T04:21:58;7.95;;;3.97;;
81219;SDS011;70690;52.494;13.410;2023-07-31T04:24:24;7.10;;;4.40;;
81219;SDS011;70690;52.494;13.410;2023-07-31T04:26:53;6.53;;;3.78;;
81219;SDS011;70690;52.494;13.410;2023-07-31T04:29:19;9.93;;;4.15;;
81219;SDS011;70690;52.494;13.410;2023-07-31T04:31:44;5.53;;;3.75;;
81219;SDS011;70690;52.494;13.410;2023-07-31T04:34:10;10.70;;;3.90;;
81219;SDS011;70690;52.494;13.410;2023-07-31T04:36:39;7.22;;;3.95;;
81219;SDS011;70690;52.494;13.410;2023-07-31T04:39:04;11.90;;;3.72;;
81219;SDS011;70690;52.494;13.410;2023-07-31T04:41:30;6.00;;;3.67;;
81219;SDS011;70690;52.494;13.410;2023-07-31T04:43:56;6.35;;;3.92;;
81219;SDS011;70690;52.494;13.410;2023-07-31T04:46:22;8.30;;;4.00;;
81219;SDS011;70690;52.494;13.410;2023-07-31T04:48:48;7.80;;;3.80;;
81219;SDS011;70690;52.494;13.410;2023-07-31T04:51:13;9.15;;;4.22;;
81219;SDS011;70690;52.494;13.410;2023-07-31T04:53:39;8.93;;;4.10;;
81219;SDS011;70690;52.494;13.410;2023-07-31T04:56:05;6.75;;;4.45;;
81219;SDS011;70690;52.494;13.410;2023-07-31T04:58:30;9.40;;;4.20;;
81219;SDS011;70690;52.494;13.410;2023-07-31T05:00:56;8.98;;;4.72;;
81219;SDS011;70690;52.494;13.410;2023-07-31T05:03:22;8.48;;;4.40;;
81219;SDS011;70690;52.494;13.410;2023-07-31T05:05:48;10.55;;;4.93;;
81219;SDS011;70690;52.494;13.410;2023-07-31T05:08:13;9.40;;;4.60;;
81219;SDS011;70690;52.494;13.410;2023-07-31T05:10:39;9.65;;;4.10;;
81219;SDS011;70690;52.494;13.410;2023-07-31T05:13:05;9.02;;;4.32;;
81219;SDS011;70690;52.494;13.410;2023-07-31T05:15:30;10.27;;;4.75;;
81219;SDS011;70690;52.494;13.410;2023-07-31T05:17:56;7.32;;;3.90;;
81219;SDS011;70690;52.494;13.410;2023-07-31T05:20:22;7.82;;;3.92;;
81219;SDS011;70690;52.494;13.410;2023-07-31T05:22:48;10.25;;;3.88;;
81219;SDS011;70690;52.494;13.410;2023-07-31T05:25:13;6.63;;;4.03;;
81219;SDS011;70690;52.494;13.410;2023-07-31T05:27:39;5.97;;;3.50;;
81219;SDS011;70690;52.494;13.410;2023-07-31T05:30:05;7.20;;;3.78;;
81219;SDS011;70690;52.494;13.410;2023-07-31T05:32:32;6.28;;;3.50;;
81219;SDS011;70690;52.494;13.410;2023-07-31T05:34:57;8.00;;;3.58;;
81219;SDS011;70690;52.494;13.410;2023-07-31T05:37:23;10.80;;;3.78;;
81219;SDS011;70690;52.494;13.410;2023-07-31T05:39:49;7.53;;;3.72;;
81219;SDS011;70690;52.494;13.410;2023-07-31T05:42:15;9.55;;;3.90;;
81219;SDS011;70690;52.494;13.410;2023-07-31T05:44:41;10.77;;;4.00;;
81219;SDS011;70690;52.494;13.410;2023-07-31T05:47:07;6.00;;;3.88;;
81219;SDS011;70690;52.494;13.410;2023-07-31T05:49:33;10.82;;;3.88;;
81219;SDS011;70690;52.494;13.410;2023-07-31T05:51:59;8.98;;;3.75;;
81219;SDS011;70690;52.494;13.410;2023-07-31T05:54:24;9.02;;;3.67;;
81219;SDS011;70690;52.494;13.410;2023-07-31T05:56:50;9.05;;;3.80;;
81219;SDS011;70690;52.494;13.410;2023-07-31T05:59:16;8.30;;;3.90;;
81219;SDS011;70690;52.494;13.410;2023-07-31T06:01:41;9.50;;;3.50;;
81219;SDS011;70690;52.494;13.410;2023-07-31T06:04:07;4.80;;;3.00;;
81219;SDS011;70690;52.494;13.410;2023-07-31T06:06:33;6.28;;;3.30;;
81219;SDS011;70690;52.494;13.410;2023-07-31T06:08:59;4.55;;;2.90;;
81219;SDS011;70690;52.494;13.410;2023-07-31T06:11:25;6.00;;;3.38;;
81219;SDS011;70690;52.494;13.410;2023-07-31T06:13:51;8.13;;;3.38;;
81219;SDS011;70690;52.494;13.410;2023-07-31T06:16:16;6.05;;;3.30;;
81219;SDS011;70690;52.494;13.410;2023-07-31T06:18:42;8.32;;;3.60;;
81219;SDS011;70690;52.494;13.410;2023-07-31T06:21:08;10.98;;;3.60;;
81219;SDS011;70690;52.494;13.410;2023-07-31T06:23:34;21.63;;;3.40;;
81219;SDS011;70690;52.494;13.410;2023-07-31T06:26:00;8.85;;;3.50;;
81219;SDS011;70690;52.494;13.410;2023-07-31T06:28:29;5.47;;;3.20;;
81219;SDS011;70690;52.494;13.410;2023-07-31T06:30:56;7.03;;;2.78;;
81219;SDS011;70690;52.494;13.410;2023-07-31T06:33:25;5.88;;;2.85;;
81219;SDS011;70690;52.494;13.410;2023-07-31T06:35:51;6.78;;;3.15;;
81219;SDS011;70690;52.494;13.410;2023-07-31T06:38:24;5.65;;;3.00;;
81219;SDS011;70690;52.494;13.410;2023-07-31T06:40:51;5.70;;;3.10;;
81219;SDS011;70690;52.494;13.410;2023-07-31T06:43:18;4.80;;;2.95;;
81219;SDS011;70690;52.494;13.410;2023-07-31T06:45:43;6.13;;;3.10;;
81219;SDS011;70690;52.494;13.410;2023-07-31T06:48:09;7.63;;;3.10;;
81219;SDS011;70690;52.494;13.410;2023-07-31T06:50:35;9.35;;;3.33;;
81219;SDS011;70690;52.494;13.410;2023-07-31T06:53:02;5.65;;;3.00;;
81219;SDS011;70690;52.494;13.410;2023-07-31T06:55:34;6.00;;;3.10;;
81219;SDS011;70690;52.494;13.410;2023-07-31T06:58:00;6.40;;;3.03;;
81219;SDS011;70690;52.494;13.410;2023-07-31T07:00:27;7.05;;;2.83;;
81219;SDS011;70690;52.494;13.410;2023-07-31T07:02:53;7.90;;;3.05;;
81219;SDS011;70690;52.494;13.410;2023-07-31T07:05:19;6.22;;;2.70;;
81219;SDS011;70690;52.494;13.410;2023-07-31T07:07:45;5.43;;;2.50;;
81219;SDS011;70690;52.494;13.410;2023-07-31T07:10:10;8.25;;;3.00;;
81219;SDS011;70690;52.494;13.410;2023-07-31T07:12:36;9.60;;;3.08;;
81219;SDS011;70690;52.494;13.410;2023-07-31T07:15:02;4.22;;;2.72;;
81219;SDS011;70690;52.494;13.410;2023-07-31T07:17:28;6.47;;;2.92;;
81219;SDS011;70690;52.494;13.410;2023-07-31T07:19:58;6.13;;;2.85;;
81219;SDS011;70690;52.494;13.410;2023-07-31T07:22:25;7.32;;;2.85;;
81219;SDS011;70690;52.494;13.410;2023-07-31T07:24:51;11.98;;;3.15;;
81219;SDS011;70690;52.494;13.410;2023-07-31T07:27:18;8.52;;;2.80;;
81219;SDS011;70690;52.494;13.410;2023-07-31T07:29:43;6.90;;;3.15;;
81219;SDS011;70690;52.494;13.410;2023-07-31T07:32:10;6.78;;;3.28;;
81219;SDS011;70690;52.494;13.410;2023-07-31T07:34:36;8.32;;;3.55;;
81219;SDS011;70690;52.494;13.410;2023-07-31T07:37:02;6.38;;;3.10;;
81219;SDS011;70690;52.494;13.410;2023-07-31T07:39:28;4.43;;;2.90;;
81219;SDS011;70690;52.494;13.410;2023-07-31T07:41:54;7.90;;;3.25;;
81219;SDS011;70690;52.494;13.410;2023-07-31T07:44:20;7.95;;;2.97;;
81219;SDS011;70690;52.494;13.410;2023-07-31T07:46:45;5.85;;;2.88;;
81219;SDS011;70690;52.494;13.410;2023-07-31T07:49:13;5.93;;;3.25;;
81219;SDS011;70690;52.494;13.410;2023-07-31T07:51:39;8.95;;;3.10;;
81219;SDS011;70690;52.494;13.410;2023-07-31T07:54:05;6.35;;;2.67;;
81219;SDS011;70690;52.494;13.410;2023-07-31T07:56:32;5.10;;;2.90;;
81219;SDS011;70690;52.494;13.410;2023-07-31T07:58:58;6.07;;;2.78;;
81219;SDS011;70690;52.494;13.410;2023-07-31T08:01:23;4.63;;;2.80;;
81219;SDS011;70690;52.494;13.410;2023-07-31T08:03:49;7.65;;;3.00;;
81219;SDS011;70690;52.494;13.410;2023-07-31T08:06:15;7.13;;;2.85;;
81219;SDS011;70690;52.494;13.410;2023-07-31T08:08:41;5.80;;;2.55;;
81219;SDS011;70690;52.494;13.410;2023-07-31T08:11:07;6.63;;;2.70;;
81219;SDS011;70690;52.494;13.410;2023-07-31T08:13:33;4.90;;;2.20;;
81219;SDS011;70690;52.494;13.410;2023-07-31T08:15:59;6.00;;;2.70;;
81219;SDS011;70690;52.494;13.410;2023-07-31T08:18:24;3.58;;;2.47;;
81219;SDS011;70690;52.494;13.410;2023-07-31T08:20:50;4.10;;;2.88;;
81219;SDS011;70690;52.494;13.410;2023-07-31T08:23:16;4.55;;;2.40;;
81219;SDS011;70690;52.494;13.410;2023-07-31T08:25:42;3.55;;;2.70;;
81219;SDS011;70690;52.494;13.410;2023-07-31T08:28:10;3.80;;;2.50;;
81219;SDS011;70690;52.494;13.410;2023-07-31T08:30:35;3.08;;;2.50;;
81219;SDS011;70690;52.494;13.410;2023-07-31T08:33:01;2.50;;;2.30;;
81219;SDS011;70690;52.494;13.410;2023-07-31T08:35:30;3.15;;;2.58;;
81219;SDS011;70690;52.494;13.410;2023-07-31T08:37:56;4.22;;;2.60;;
81219;SDS011;70690;52.494;13.410;2023-07-31T08:40:21;5.30;;;3.00;;
81219;SDS011;70690;52.494;13.410;2023-07-31T08:42:48;3.03;;;2.70;;
81219;SDS011;70690;52.494;13.410;2023-07-31T08:45:19;4.25;;;2.70;;
81219;SDS011;70690;52.494;13.410;2023-07-31T08:47:46;3.45;;;2.72;;
81219;SDS011;70690;52.494;13.410;2023-07-31T08:50:14;5.45;;;2.60;;
81219;SDS011;70690;52.494;13.410;2023-07-31T08:52:42;6.93;;;2.90;;
81219;SDS011;70690;52.494;13.410;2023-07-31T08:55:08;3.03;;;2.70;;
81219;SDS011;70690;52.494;13.410;2023-07-31T08:57:35;3.45;;;2.17;;
81219;SDS011;70690;52.494;13.410;2023-07-31T09:00:03;5.70;;;2.60;;
81219;SDS011;70690;52.494;13.410;2023-07-31T09:05:08;3.35;;;2.10;;
81219;SDS011;70690;52.494;13.410;2023-07-31T09:07:35;4.53;;;2.67;;
81219;SDS011;70690;52.494;13.410;2023-07-31T09:10:02;5.10;;;2.10;;
81219;SDS011;70690;52.494;13.410;2023-07-31T09:12:29;3.28;;;2.40;;
81219;SDS011;70690;52.494;13.410;2023-07-31T09:14:56;3.05;;;2.15;;
81219;SDS011;70690;52.494;13.410;2023-07-31T09:17:32;4.20;;;2.13;;
81219;SDS011;70690;52.494;13.410;2023-07-31T09:20:15;3.25;;;2.10;;
81219;SDS011;70690;52.494;13.410;2023-07-31T09:22:46;3.20;;;1.95;;
81219;SDS011;70690;52.494;13.410;2023-07-31T09:25:16;2.72;;;1.70;;
81219;SDS011;70690;52.494;13.410;2023-07-31T09:27:47;2.70;;;1.80;;
81219;SDS011;70690;52.494;13.410;2023-07-31T09:30:14;2.00;;;1.60;;
81219;SDS011;70690;52.494;13.410;2023-07-31T09:32:40;2.08;;;1.80;;
81219;SDS011;70690;52.494;13.410;2023-07-31T09:35:15;2.90;;;2.00;;
81219;SDS011;70690;52.494;13.410;2023-07-31T09:37:51;2.28;;;2.08;;
81219;SDS011;70690;52.494;13.410;2023-07-31T09:40:28;2.58;;;1.40;;
81219;SDS011;70690;52.494;13.410;2023-07-31T09:43:02;1.55;;;1.45;;
81219;SDS011;70690;52.494;13.410;2023-07-31T09:45:33;2.17;;;1.70;;
81219;SDS011;70690;52.494;13.410;2023-07-31T09:48:01;3.60;;;1.63;;
81219;SDS011;70690;52.494;13.410;2023-07-31T09:50:27;1.92;;;1.67;;
81219;SDS011;70690;52.494;13.410;2023-07-31T09:52:54;1.83;;;1.73;;
81219;SDS011;70690;52.494;13.410;2023-07-31T09:55:20;1.42;;;1.15;;
81219;SDS011;70690;52.494;13.410;2023-07-31T09:57:49;1.80;;;1.23;;
81219;SDS011;70690;52.494;13.410;2023-07-31T10:00:16;1.98;;;1.42;;
81219;SDS011;70690;52.494;13.410;2023-07-31T10:02:46;1.67;;;1.42;;
81219;SDS011;70690;52.494;13.410;2023-07-31T10:07:42;2.10;;;1.67;;
81219;SDS011;70690;52.494;13.410;2023-07-31T10:10:13;2.53;;;1.77;;
81219;SDS011;70690;52.494;13.410;2023-07-31T10:12:41;2.15;;;2.00;;
81219;SDS011;70690;52.494;13.410;2023-07-31T10:15:09;4.95;;;2.20;;
81219;SDS011;70690;52.494;13.410;2023-07-31T10:17:35;2.97;;;2.60;;
81219;SDS011;70690;52.494;13.410;2023-07-31T10:20:02;5.80;;;2.90;;
81219;SDS011;70690;52.494;13.410;2023-07-31T10:22:30;5.40;;;2.90;;
81219;SDS011;70690;52.494;13.410;2023-07-31T10:25:00;6.35;;;3.08;;
81219;SDS011;70690;52.494;13.410;2023-07-31T10:27:26;7.00;;;3.17;;
81219;SDS011;70690;52.494;13.410;2023-07-31T10:29:53;4.50;;;3.35;;
81219;SDS011;70690;52.494;13.410;2023-07-31T10:32:20;6.95;;;3.40;;
81219;SDS011;70690;52.494;13.410;2023-07-31T10:34:47;4.38;;;2.97;;
81219;SDS011;70690;52.494;13.410;2023-07-31T10:40:13;6.50;;;3.47;;
81219;SDS011;70690;52.494;13.410;2023-07-31T10:42:49;9.02;;;3.78;;
81219;SDS011;70690;52.494;13.410;2023-07-31T10:45:27;6.85;;;3.40;;
81219;SDS011;70690;52.494;13.410;2023-07-31T10:48:03;7.50;;;3.28;;
81219;SDS011;70690;52.494;13.410;2023-07-31T10:50:30;5.45;;;3.33;;
81219;SDS011;70690;52.494;13.410;2023-07-31T10:52:58;4.38;;;3.00;;
81219;SDS011;70690;52.494;13.410;2023-07-31T10:58:06;5.68;;;3.50;;
81219;SDS011;70690;52.494;13.410;2023-07-31T11:00:40;6.43;;;3.50;;
81219;SDS011;70690;52.494;13.410;2023-07-31T11:03:12;6.93;;;3.70;;
81219;SDS011;70690;52.494;13.410;2023-07-31T11:05:41;8.73;;;3.40;;
81219;SDS011;70690;52.494;13.410;2023-07-31T11:13:39;4.53;;;3.50;;
81219;SDS011;70690;52.494;13.410;2023-07-31T11:16:15;6.47;;;3.25;;
81219;SDS011;70690;52.494;13.410;2023-07-31T11:18:43;8.45;;;3.03;;
81219;SDS011;70690;52.494;13.410;2023-07-31T11:21:14;5.90;;;3.00;;
81219;SDS011;70690;52.494;13.410;2023-07-31T11:23:41;4.72;;;3.20;;
81219;SDS011;70690;52.494;13.410;2023-07-31T11:26:10;7.88;;;3.30;;
81219;SDS011;70690;52.494;13.410;2023-07-31T11:28:37;7.97;;;3.47;;
81219;SDS011;70690;52.494;13.410;2023-07-31T11:31:03;5.65;;;3.78;;
81219;SDS011;70690;52.494;13.410;2023-07-31T11:33:29;6.90;;;3.28;;
81219;SDS011;70690;52.494;13.410;2023-07-31T11:35:55;4.38;;;3.13;;
81219;SDS011;70690;52.494;13.410;2023-07-31T11:38:25;6.13;;;2.92;;
81219;SDS011;70690;52.494;13.410;2023-07-31T11:40:58;13.43;;;7.55;;
81219;SDS011;70690;52.494;13.410;2023-07-31T11:43:27;5.95;;;3.10;;
81219;SDS011;70690;52.494;13.410;2023-07-31T11:45:54;5.07;;;3.10;;
81219;SDS011;70690;52.494;13.410;2023-07-31T11:48:31;6.80;;;3.10;;
81219;SDS011;70690;52.494;13.410;2023-07-31T11:51:15;6.63;;;3.20;;
81219;SDS011;70690;52.494;13.410;2023-07-31T11:54:00;7.35;;;3.05;;
81219;SDS011;70690;52.494;13.410;2023-07-31T11:56:27;5.97;;;2.70;;
81219;SDS011;70690;52.494;13.410;2023-07-31T11:58:54;7.78;;;3.40;;
81219;SDS011;70690;52.494;13.410;2023-07-31T12:04:09;5.75;;;3.10;;
81219;SDS011;70690;52.494;13.410;2023-07-31T12:06:35;7.82;;;3.15;;
81219;SDS011;70690;52.494;13.410;2023-07-31T12:09:04;4.60;;;3.10;;
81219;SDS011;70690;52.494;13.410;2023-07-31T12:11:30;4.38;;;2.92;;
81219;SDS011;70690;52.494;13.410;2023-07-31T12:13:56;6.68;;;3.40;;
81219;SDS011;70690;52.494;13.410;2023-07-31T12:16:25;5.57;;;3.25;;
81219;SDS011;70690;52.494;13.410;2023-07-31T12:18:52;7.95;;;3.00;;
81219;SDS011;70690;52.494;13.410;2023-07-31T12:21:17;6.25;;;3.35;;
81219;SDS011;70690;52.494;13.410;2023-07-31T12:23:45;3.85;;;3.00;;
81219;SDS011;70690;52.494;13.410;2023-07-31T12:26:14;5.05;;;2.80;;
81219;SDS011;70690;52.494;13.410;2023-07-31T12:31:11;6.28;;;3.03;;
81219;SDS011;70690;52.494;13.410;2023-07-31T12:33:39;4.28;;;2.75;;
81219;SDS011;70690;52.494;13.410;2023-07-31T12:36:09;6.93;;;2.97;;
81219;SDS011;70690;52.494;13.410;2023-07-31T12:39:05;4.28;;;2.47;;
81219;SDS011;70690;52.494;13.410;2023-07-31T12:41:30;7.30;;;3.25;;
81219;SDS011;70690;52.494;13.410;2023-07-31T12:43:56;8.43;;;2.95;;
81219;SDS011;70690;52.494;13.410;2023-07-31T12:46:22;4.55;;;2.80;;
81219;SDS011;70690;52.494;13.410;2023-07-31T12:48:48;5.80;;;2.90;;
81219;SDS011;70690;52.494;13.410;2023-07-31T12:51:14;5.05;;;2.85;;
81219;SDS011;70690;52.494;13.410;2023-07-31T12:53:39;7.15;;;2.78;;
81219;SDS011;70690;52.494;13.410;2023-07-31T12:56:05;3.05;;;2.22;;
81219;SDS011;70690;52.494;13.410;2023-07-31T12:58:31;3.47;;;2.53;;
81219;SDS011;70690;52.494;13.410;2023-07-31T13:01:12;3.55;;;2.63;;
81219;SDS011;70690;52.494;13.410;2023-07-31T13:03:37;5.15;;;2.63;;
81219;SDS011;70690;52.494;13.410;2023-07-31T13:06:03;3.42;;;2.42;;
81219;SDS011;70690;52.494;13.410;2023-07-31T13:08:30;3.13;;;2.20;;
81219;SDS011;70690;52.494;13.410;2023-07-31T13:10:56;3.65;;;2.47;;
81219;SDS011;70690;52.494;13.410;2023-07-31T13:16:48;3.60;;;2.58;;
81219;SDS011;70690;52.494;13.410;2023-07-31T13:19:14;4.95;;;2.45;;
81219;SDS011;70690;52.494;13.410;2023-07-31T13:21:40;6.10;;;2.40;;
81219;SDS011;70690;52.494;13.410;2023-07-31T13:24:06;5.70;;;2.28;;
81219;SDS011;70690;52.494;13.410;2023-07-31T13:26:31;3.50;;;2.50;;
81219;SDS011;70690;52.494;13.410;2023-07-31T13:28:57;8.35;;;2.80;;
81219;SDS011;70690;52.494;13.410;2023-07-31T13:31:23;6.90;;;2.90;;
81219;SDS011;70690;52.494;13.410;2023-07-31T13:33:49;6.50;;;2.67;;
81219;SDS011;70690;52.494;13.410;2023-07-31T13:36:14;5.03;;;2.95;;
81219;SDS011;70690;52.494;13.410;2023-07-31T13:38:40;6.70;;;2.90;;
81219;SDS011;70690;52.494;13.410;2023-07-31T13:41:06;7.57;;;2.90;;
81219;SDS011;70690;52.494;13.410;2023-07-31T13:43:32;3.38;;;2.70;;
81219;SDS011;70690;52.494;13.410;2023-07-31T13:45:57;5.13;;;2.97;;
81219;SDS011;70690;52.494;13.410;2023-07-31T13:48:29;5.25;;;2.72;;
81219;SDS011;70690;52.494;13.410;2023-07-31T13:50:55;4.68;;;2.72;;
81219;SDS011;70690;52.494;13.410;2023-07-31T13:53:20;5.18;;;2.95;;
81219;SDS011;70690;52.494;13.410;2023-07-31T13:55:46;5.68;;;2.83;;
81219;SDS011;70690;52.494;13.410;2023-07-31T13:58:14;7.63;;;2.95;;
81219;SDS011;70690;52.494;13.410;2023-07-31T14:00:40;4.85;;;3.10;;
81219;SDS011;70690;52.494;13.410;2023-07-31T14:03:05;5.43;;;3.20;;
81219;SDS011;70690;52.494;13.410;2023-07-31T14:05:31;6.68;;;2.90;;
81219;SDS011;70690;52.494;13.410;2023-07-31T14:07:57;5.95;;;3.10;;
81219;SDS011;70690;52.494;13.410;2023-07-31T14:10:22;7.15;;;2.92;;
81219;SDS011;70690;52.494;13.410;2023-07-31T14:12:48;5.88;;;3.03;;
81219;SDS011;70690;52.494;13.410;2023-07-31T14:15:14;8.45;;;3.38;;
81219;SDS011;70690;52.494;13.410;2023-07-31T14:17:39;7.90;;;3.30;;
81219;SDS011;70690;52.494;13.410;2023-07-31T14:20:05;3.63;;;3.00;;
81219;SDS011;70690;52.494;13.410;2023-07-31T14:22:32;7.07;;;3.78;;
81219;SDS011;70690;52.494;13.410;2023-07-31T14:24:59;8.48;;;3.30;;
81219;SDS011;70690;52.494;13.410;2023-07-31T14:27:25;3.80;;;2.90;;
81219;SDS011;70690;52.494;13.410;2023-07-31T14:29:50;4.18;;;2.75;;
81219;SDS011;70690;52.494;13.410;2023-07-31T14:32:16;5.47;;;3.17;;
81219;SDS011;70690;52.494;13.410;2023-07-31T14:34:42;7.82;;;3.08;;
81219;SDS011;70690;52.494;13.410;2023-07-31T14:37:07;5.60;;;3.00;;
81219;SDS011;70690;52.494;13.410;2023-07-31T14:39:33;4.53;;;2.85;;
81219;SDS011;70690;52.494;13.410;2023-07-31T14:41:59;5.05;;;2.90;;
81219;SDS011;70690;52.494;13.410;2023-07-31T14:44:24;4.82;;;3.05;;
81219;SDS011;70690;52.494;13.410;2023-07-31T14:46:53;6.28;;;2.90;;
81219;SDS011;70690;52.494;13.410;2023-07-31T14:49:19;5.63;;;2.90;;
81219;SDS011;70690;52.494;13.410;2023-07-31T14:51:45;5.03;;;3.10;;
81219;SDS011;70690;52.494;13.410;2023-07-31T14:54:10;5.18;;;3.47;;
81219;SDS011;70690;52.494;13.410;2023-07-31T14:56:36;6.03;;;3.00;;
81219;SDS011;70690;52.494;13.410;2023-07-31T14:59:02;8.48;;;2.90;;
81219;SDS011;70690;52.494;13.410;2023-07-31T15:01:37;5.38;;;2.92;;
81219;SDS011;70690;52.494;13.410;2023-07-31T15:04:03;3.53;;;2.80;;
81219;SDS011;70690;52.494;13.410;2023-07-31T15:06:30;4.80;;;3.05;;